KHWV

Brookhaven Airport

Shirley, New York, USA
METAR KHWV 210356Z AUTO 27003KT 10SM CLR M01/M03 A3003 RMK AO2 SLP169 T10061033 $
Observed Flight Rules
Jan-21 @ 03:56 UTC (55 minutes ago) Visual Flight Rules
Wind Visibility Clouds
270° at 3 knots 10 miles
  • Clear skies
Temperatures Readings
Current -1°C / 30°F
Dewpoint -3°C / 27°F
Humidity 86%
Altimeter 30.03" Hg
Pressure 1016.9 hPa
Elevation 21
METAR KHWV 210356Z AUTO 27003KT 10SM CLR M01/M03 A3003 RMK AO2 SLP169 T10061033 $
Observed Flight Rules
Jan-21 @ 03:56 UTC
(55 minutes ago)
VFR
Wind Visibility
270° at 3 knots 10 miles
Clouds
  • Clear skies
Temperature Dewpoint
-1°C / 30°F -3°C / 27°F
Humidity Altimeter Pressure
86% 30.03" Hg 1016.9 hPa